createdAt,value
2023-04-20T19:07:23.335Z,70.63
2023-04-20T19:12:28.040Z,44.50
2023-04-20T19:17:32.516Z,33.00
2023-04-20T19:22:38.339Z,29.35
2023-04-20T19:27:42.607Z,29.98
2023-04-20T19:32:47.101Z,34.63
2023-04-20T19:37:52.909Z,34.75
2023-04-20T19:42:58.341Z,32.08
2023-04-20T19:48:03.067Z,32.75
2023-04-20T19:53:09.095Z,74.32
2023-04-20T19:58:13.637Z,99.95
2023-04-20T20:03:17.961Z,118.55
2023-04-20T20:08:23.930Z,63.08
2023-04-20T20:13:28.172Z,83.47
2023-04-20T20:18:32.600Z,40.65
2023-04-20T20:23:38.618Z,52.80
2023-04-20T20:28:43.319Z,47.78
2023-04-20T20:33:47.444Z,31.73
2023-04-20T20:38:53.613Z,43.67
2023-04-20T20:43:58.251Z,46.70
2023-04-20T20:49:02.685Z,39.38
2023-04-20T20:54:08.331Z,48.03
2023-04-20T20:59:12.762Z,49.40
2023-04-20T21:04:17.133Z,36.65
2023-04-20T21:09:23.065Z,31.85
2023-04-20T21:14:27.538Z,45.30
2023-04-20T21:19:31.736Z,42.83
2023-04-20T21:24:37.776Z,33.75
2023-04-20T21:29:42.045Z,36.55
2023-04-20T21:34:46.382Z,45.05
2023-04-20T21:39:52.640Z,30.40
2023-04-20T21:44:57.030Z,28.58
2023-04-20T21:50:01.619Z,33.70
2023-04-20T21:55:08.135Z,38.50
2023-04-20T22:00:14.128Z,36.28
2023-04-20T22:05:22.812Z,32.30
2023-04-20T22:10:28.898Z,35.20
2023-04-20T22:15:33.479Z,52.20
2023-04-20T22:20:38.222Z,31.00
2023-04-20T22:25:44.566Z,32.17
2023-04-20T22:30:49.146Z,41.40
2023-04-20T22:35:53.872Z,31.13
2023-04-20T22:41:00.587Z,36.20
2023-04-20T22:46:04.956Z,30.45
2023-04-20T22:51:09.453Z,33.80
2023-04-20T22:56:15.426Z,32.08
2023-04-20T23:01:19.730Z,31.63
2023-04-20T23:06:23.946Z,28.63
2023-04-20T23:11:30.077Z,23.20
2023-04-20T23:16:34.586Z,28.50
2023-04-20T23:21:39.105Z,29.65
2023-04-20T23:26:44.721Z,30.38
2023-04-20T23:31:49.137Z,24.38
2023-04-20T23:36:54.460Z,38.95
2023-04-20T23:42:00.316Z,32.45
2023-04-20T23:47:04.529Z,20.50
2023-04-20T23:52:08.681Z,28.15
2023-04-20T23:57:14.372Z,22.92
